»·PEaware :: N582VB KSAN-KLAS

N582VB :: KSAN-KLAS

FLIGHT INFORMATION

Flight Status: Arrived
Operator: Privately registered:
United States
More flights under this callsign
Pilot: Corentin D. (28157)
Aircraft: CESSNA 510 CITATION MUSTANG
(C510)
More flights by this aircraft type
Origin: KSAN San Diego Intl-Lindbergh
United States
Destination: KLAS McCarran Intl
United States
More flights between these airports :: More routes between these airports
Route: PADRZ2 CHKNN SEBBY YELAH MISEN KEPEC6
File this flight plan on PilotEdge
Remarks:
Altitude:
(Current/Filed)
23,000ft
Speed:
(Current/Filed)
240kts
Departed: 05-Jul-20 04:13 PM
Arrived: 05-Jul-20 05:11 PM
Distance/Time
Traveled:
224nm/0:57
Distance/Time
To Go:
Arrived

Flight Plot

Page will automatically refresh every two minutes.

Flight plan parsing failed; only flown route is shown


Map Options




Map Legend


Flown Route
Filed Route
Departure Airport
Arrival Airport
Navaid (VOR, NDB)
Fix

Horizontal Profiles

Position Reports

Time Latitude Longitude Heading Altitude Ground
Speed
05-Jul-20 15:39 32.733437 -117.178648 17 21ft 0kts
05-Jul-20 15:40 32.733437 -117.178648 17 21ft 0kts
05-Jul-20 15:41 32.733437 -117.178648 17 21ft 0kts
05-Jul-20 15:42 32.733437 -117.178648 17 21ft 0kts
05-Jul-20 15:43 32.733437 -117.178648 17 21ft 0kts
05-Jul-20 15:44 32.733437 -117.178648 17 21ft 0kts
05-Jul-20 15:45 32.733437 -117.178648 17 21ft 0kts
05-Jul-20 15:46 32.733437 -117.178648 17 21ft 0kts
05-Jul-20 15:47 32.733437 -117.178648 17 21ft 0kts
05-Jul-20 15:48 32.733437 -117.178648 17 21ft 0kts
05-Jul-20 15:49 32.733437 -117.178648 17 21ft 0kts
05-Jul-20 15:50 32.733437 -117.178648 17 21ft 0kts
05-Jul-20 15:51 32.733437 -117.178648 17 21ft 0kts
05-Jul-20 15:52 32.733437 -117.178648 17 21ft 0kts
05-Jul-20 15:53 32.733437 -117.178648 17 21ft 0kts
05-Jul-20 15:54 32.733437 -117.178648 17 21ft 0kts
05-Jul-20 15:55 32.733437 -117.178648 17 21ft 0kts
05-Jul-20 15:56 32.733714 -117.179185 251 21ft 8kts
05-Jul-20 15:57 32.731980 -117.178407 105 21ft 1kts
05-Jul-20 15:58 32.731443 -117.176222 107 21ft 2kts
05-Jul-20 15:59 32.731414 -117.176041 110 21ft 0kts
05-Jul-20 16:00 32.732545 -117.177605 286 21ft 9kts
05-Jul-20 16:02 32.733839 -117.178945 106 21ft 9kts
05-Jul-20 16:03 32.733509 -117.178631 196 21ft 0kts
05-Jul-20 16:04 32.733509 -117.178631 196 21ft 0kts
05-Jul-20 16:05 32.733509 -117.178631 196 21ft 0kts
05-Jul-20 16:06 32.733509 -117.178631 196 21ft 0kts
05-Jul-20 16:07 32.733509 -117.178631 196 21ft 0kts
05-Jul-20 16:08 32.733751 -117.179349 232 21ft 2kts
05-Jul-20 16:09 32.732609 -117.177868 105 21ft 8kts
05-Jul-20 16:10 32.731339 -117.175912 126 21ft 0kts
05-Jul-20 16:11 32.730995 -117.175560 143 21ft 7kts
05-Jul-20 16:12 32.730194 -117.175829 283 21ft 0kts
05-Jul-20 16:13 32.733136 -117.188216 286 219ft 127kts
05-Jul-20 16:14 32.757338 -117.242915 303 2199ft 203kts
05-Jul-20 16:15 32.788833 -117.298913 301 4497ft 211kts
05-Jul-20 16:16 32.824147 -117.356430 305 7007ft 219kts
05-Jul-20 16:17 32.861434 -117.414419 305 9514ft 232kts
05-Jul-20 16:17 32.897331 -117.470315 305 11678ft 276kts
05-Jul-20 16:19 32.953076 -117.557246 305 14227ft 300kts
05-Jul-20 16:20 33.005210 -117.638294 305 16549ft 311kts
05-Jul-20 16:20 33.049387 -117.707358 305 18302ft 319kts
05-Jul-20 16:22 33.126487 -117.793430 316 20659ft 325kts
05-Jul-20 16:22 33.184641 -117.852721 316 22054ft 332kts
05-Jul-20 16:23 33.257302 -117.924126 318 22998ft 338kts
05-Jul-20 16:24 33.345271 -117.949160 5 22998ft 345kts
05-Jul-20 16:25 33.439663 -117.927298 8 22975ft 344kts
05-Jul-20 16:26 33.533537 -117.905261 7 22974ft 343kts
05-Jul-20 16:27 33.627771 -117.883579 7 22974ft 343kts
05-Jul-20 16:28 33.721869 -117.862395 7 22974ft 343kts
05-Jul-20 16:29 33.815417 -117.840791 7 22968ft 343kts
05-Jul-20 16:30 33.914662 -117.817436 9 22962ft 381kts
05-Jul-20 16:31 33.996165 -117.739409 42 22969ft 370kts
05-Jul-20 16:32 34.070294 -117.651652 42 22979ft 375kts
05-Jul-20 16:33 34.144616 -117.563399 42 22983ft 377kts
05-Jul-20 16:34 34.219358 -117.474333 42 22990ft 378kts
05-Jul-20 16:35 34.294005 -117.385122 42 23006ft 378kts
05-Jul-20 16:36 34.368853 -117.295436 43 23023ft 378kts
05-Jul-20 16:37 34.443625 -117.205596 43 23019ft 379kts
05-Jul-20 16:38 34.518465 -117.115429 43 23016ft 377kts
05-Jul-20 16:39 34.593048 -117.025347 43 23005ft 378kts
05-Jul-20 16:40 34.667588 -116.935057 43 22970ft 377kts
05-Jul-20 16:41 34.741637 -116.845141 43 22945ft 375kts
05-Jul-20 16:42 34.815140 -116.755607 43 22945ft 373kts
05-Jul-20 16:43 34.888659 -116.665859 43 22945ft 373kts
05-Jul-20 16:44 34.962209 -116.575811 44 22950ft 375kts
05-Jul-20 16:45 35.036160 -116.485008 46 22968ft 378kts
05-Jul-20 16:46 35.108342 -116.396154 46 22784ft 377kts
05-Jul-20 16:47 35.175798 -116.311792 47 20284ft 340kts
05-Jul-20 16:48 35.240586 -116.230503 47 17778ft 332kts
05-Jul-20 16:49 35.304791 -116.150733 47 15267ft 326kts
05-Jul-20 16:50 35.366156 -116.071744 46 13059ft 308kts
05-Jul-20 16:51 35.426915 -115.995438 46 13073ft 317kts
05-Jul-20 16:52 35.487976 -115.918308 46 13073ft 315kts
05-Jul-20 16:53 35.548843 -115.841099 46 13067ft 313kts
05-Jul-20 16:54 35.609309 -115.764188 47 13061ft 311kts
05-Jul-20 16:55 35.670142 -115.686614 46 13054ft 315kts
05-Jul-20 16:56 35.730021 -115.610122 46 13054ft 308kts
05-Jul-20 16:57 35.808158 -115.572589 3 13059ft 315kts
05-Jul-20 16:58 35.896934 -115.567646 3 13045ft 322kts
05-Jul-20 16:59 35.976281 -115.527600 48 12071ft 317kts
05-Jul-20 17:00 36.012839 -115.433255 69 11000ft 280kts
05-Jul-20 17:01 36.028670 -115.341562 96 11030ft 280kts
05-Jul-20 17:02 36.021771 -115.245803 96 10914ft 265kts
05-Jul-20 17:03 36.015582 -115.158927 96 8667ft 238kts
05-Jul-20 17:04 36.017227 -115.082380 47 7628ft 223kts
05-Jul-20 17:05 36.080942 -115.059178 11 5492ft 228kts
05-Jul-20 17:06 36.135341 -115.056713 303 5494ft 185kts
05-Jul-20 17:07 36.141309 -115.113996 284 4003ft 148kts
05-Jul-20 17:08 36.121975 -115.143568 203 2756ft 137kts
05-Jul-20 17:09 36.091404 -115.161173 205 2117ft 92kts
05-Jul-20 17:10 36.084018 -115.166257 233 2151ft 12kts
05-Jul-20 17:11 36.083854 -115.166531 233 2152ft 0kts
05-Jul-20 17:12 36.082574 -115.168593 209 2162ft 8kts
05-Jul-20 17:13 36.081469 -115.170599 269 2168ft 6kts
05-Jul-20 17:16 36.081565 -115.170957 336 2169ft 0kts
05-Jul-20 17:17 36.081565 -115.170957 336 2169ft 0kts
05-Jul-20 17:18 36.081565 -115.170957 336 2169ft 0kts
05-Jul-20 17:19 36.081565 -115.170957 336 2169ft 0kts
05-Jul-20 17:20 36.081565 -115.170957 336 2169ft 0kts
05-Jul-20 17:21 36.081565 -115.170957 336 2169ft 0kts
05-Jul-20 17:22 36.081565 -115.170957 336 2169ft 0kts
05-Jul-20 17:23 36.081565 -115.170957 336 2169ft 0kts

Navigation Log

Ident Type
Flight plan parsing failed, navigation log unavailable